Time;durP1;ratioP1;P1;durP2;ratioP2;P2;SDS_P1;SDS_P2;PMS_P1;PMS_P2;Temp;Humidity;BMP_temperature;BMP_pressure;BME280_temperature;BME280_humidity;BME280_pressure;Samples;Min_cycle;Max_cycle;Signal;HPM_P1;HPM_P2
2024/01/15 00:00:51;;;;;;;10.10;7.20;;;;;;;0.47;100.00;97224.80;109509;1251;67056;-77
2024/01/15 00:03:38;;;;;;;10.50;6.60;;;;;;;0.47;100.00;97218.16;109520;1251;62723;-77
2024/01/15 00:06:05;;;;;;;9.50;5.80;;;;;;;0.47;100.00;97210.13;109285;1251;62532;-77
2024/01/15 00:08:31;;;;;;;9.80;6.70;;;;;;;0.47;100.00;97204.52;109528;1251;59882;-76
2024/01/15 00:10:58;;;;;;;10.50;6.90;;;;;;;0.48;100.00;97199.98;109522;1251;59014;-77
2024/01/15 00:13:24;;;;;;;10.00;6.50;;;;;;;0.48;100.00;97192.81;109482;1251;66066;-77
2024/01/15 00:15:51;;;;;;;7.80;5.00;;;;;;;0.49;100.00;97191.16;109512;1252;61116;-77
2024/01/15 00:18:17;;;;;;;11.10;6.40;;;;;;;0.49;100.00;97193.05;109501;1251;64165;-77
2024/01/15 00:20:44;;;;;;;9.30;5.80;;;;;;;0.50;100.00;97190.57;109498;1253;59212;-76
2024/01/15 00:23:10;;;;;;;7.70;5.40;;;;;;;0.51;100.00;97187.03;109531;1251;59025;-77
2024/01/15 00:25:37;;;;;;;9.00;5.80;;;;;;;0.50;100.00;97185.15;109505;1251;66017;-77
2024/01/15 00:28:04;;;;;;;9.30;6.30;;;;;;;0.50;100.00;97178.87;109518;1251;60012;-77
2024/01/15 00:30:30;;;;;;;9.60;6.00;;;;;;;0.50;100.00;97172.57;109537;1251;65031;-78
2024/01/15 00:32:57;;;;;;;10.00;6.20;;;;;;;0.49;100.00;97169.99;109509;1251;59112;-77
2024/01/15 00:35:23;;;;;;;10.40;6.10;;;;;;;0.49;100.00;97164.09;109520;1251;59827;-77
2024/01/15 00:37:50;;;;;;;7.60;4.90;;;;;;;0.49;100.00;97157.95;109514;1252;67096;-77
2024/01/15 00:40:17;;;;;;;9.50;5.60;;;;;;;0.48;100.00;97156.09;109511;1251;60103;-77
2024/01/15 00:42:43;;;;;;;9.50;6.40;;;;;;;0.47;100.00;97152.80;109460;1251;64009;-77
2024/01/15 00:45:10;;;;;;;9.00;5.60;;;;;;;0.47;100.00;97148.09;109506;1251;58954;-77
2024/01/15 00:47:37;;;;;;;8.80;5.40;;;;;;;0.47;100.00;97144.11;109537;1251;59106;-77
2024/01/15 00:50:04;;;;;;;9.40;5.50;;;;;;;0.47;100.00;97141.45;108730;1251;1002908;-77
2024/01/15 00:52:30;;;;;;;7.90;5.80;;;;;;;0.48;100.00;97141.92;109509;1251;59281;-77
2024/01/15 00:54:57;;;;;;;8.10;5.30;;;;;;;0.50;100.00;97145.30;109493;1251;73567;-77
2024/01/15 00:57:23;;;;;;;8.10;5.40;;;;;;;0.50;100.00;97145.12;108739;1251;1002329;-77
2024/01/15 00:59:50;;;;;;;11.30;6.00;;;;;;;0.51;100.00;97141.95;109495;1253;59417;-77
2024/01/15 01:02:17;;;;;;;8.80;5.20;;;;;;;0.52;100.00;97136.11;109498;1251;66047;-77
2024/01/15 01:04:43;;;;;;;10.10;5.60;;;;;;;0.52;100.00;97130.34;109503;1251;61244;-77
2024/01/15 01:07:10;;;;;;;7.60;5.10;;;;;;;0.52;100.00;97133.31;109504;1251;64224;-77
2024/01/15 01:09:36;;;;;;;8.20;4.90;;;;;;;0.53;100.00;97131.17;109473;1253;59096;-77
2024/01/15 01:12:03;;;;;;;8.20;5.30;;;;;;;0.53;100.00;97123.08;109487;1252;58972;-77
2024/01/15 01:14:30;;;;;;;8.60;4.70;;;;;;;0.55;100.00;97116.02;109320;1251;65656;-77
2024/01/15 01:16:56;;;;;;;6.80;4.80;;;;;;;0.55;100.00;97119.85;109497;1251;61831;-76
2024/01/15 01:19:25;;;;;;;7.60;4.80;;;;;;;0.56;100.00;97122.63;109457;1253;64142;-76
2024/01/15 01:21:51;;;;;;;7.00;4.90;;;;;;;0.56;100.00;97121.75;109463;1251;59372;-76
2024/01/15 01:24:18;;;;;;;8.60;5.30;;;;;;;0.55;100.00;97120.05;109500;1252;59026;-77
2024/01/15 01:26:46;;;;;;;8.70;4.10;;;;;;;0.55;100.00;97116.71;107995;1251;1003275;-77
2024/01/15 01:29:13;;;;;;;6.20;4.50;;;;;;;0.54;100.00;97113.28;109585;1251;61046;-77
2024/01/15 01:31:45;;;;;;;7.60;4.70;;;;;;;0.52;100.00;97110.94;109457;1251;64008;-76
2024/01/15 01:34:16;;;;;;;6.50;4.70;;;;;;;0.51;100.00;97103.84;109477;1251;58961;-76
2024/01/15 01:36:43;;;;;;;6.20;4.50;;;;;;;0.51;100.00;97099.14;109277;1251;59212;-76
2024/01/15 01:39:10;;;;;;;5.00;3.80;;;;;;;0.50;100.00;97092.71;109264;1251;67023;-77
2024/01/15 01:41:38;;;;;;;6.40;4.40;;;;;;;0.50;100.00;97090.63;109481;1251;60302;-77
2024/01/15 01:44:05;;;;;;;7.10;4.40;;;;;;;0.51;100.00;97088.86;109496;1251;65103;-78
2024/01/15 01:46:32;;;;;;;6.70;4.50;;;;;;;0.51;100.00;97085.88;109456;1252;59021;-77
2024/01/15 01:49:01;;;;;;;6.00;4.10;;;;;;;0.50;100.00;97079.08;109495;1252;58903;-76
2024/01/15 01:51:27;;;;;;;6.30;4.50;;;;;;;0.50;100.00;97073.67;109502;1251;67185;-77
2024/01/15 01:53:55;;;;;;;6.30;4.70;;;;;;;0.51;100.00;97066.28;109476;1253;60349;-75
2024/01/15 01:56:21;;;;;;;5.60;3.70;;;;;;;0.51;100.00;97060.31;109514;1251;65173;-77
2024/01/15 01:58:48;;;;;;;6.80;4.20;;;;;;;0.52;100.00;97063.77;109469;1251;59016;-77
2024/01/15 02:01:16;;;;;;;7.10;3.70;;;;;;;0.53;100.00;97058.29;109530;1251;59020;-77
2024/01/15 02:03:43;;;;;;;6.10;4.00;;;;;;;0.52;100.00;97049.42;109529;1251;67143;-77
2024/01/15 02:06:09;;;;;;;6.10;4.10;;;;;;;0.51;100.00;97050.70;109536;1251;61244;-77
2024/01/15 02:08:36;;;;;;;5.80;3.40;;;;;;;0.50;100.00;97051.34;109518;1251;64093;-76
2024/01/15 02:11:03;;;;;;;6.40;3.80;;;;;;;0.50;100.00;97053.08;109465;1251;58912;-76
2024/01/15 02:13:30;;;;;;;4.60;3.50;;;;;;;0.51;100.00;97049.34;109482;1251;58979;-76
2024/01/15 02:15:56;;;;;;;4.50;3.00;;;;;;;0.51;100.00;97044.79;109467;1251;66863;-76
2024/01/15 02:18:23;;;;;;;5.40;3.50;;;;;;;0.50;100.00;97038.90;109490;1252;61224;-76
2024/01/15 02:20:49;;;;;;;5.70;3.20;;;;;;;0.50;100.00;97035.06;109469;1251;64330;-76
2024/01/15 02:23:16;;;;;;;4.60;3.50;;;;;;;0.49;100.00;97033.71;109506;1251;59031;-75
2024/01/15 02:25:45;;;;;;;5.30;3.70;;;;;;;0.49;100.00;97030.29;109245;1251;59034;-77
2024/01/15 02:28:17;;;;;;;5.70;4.20;;;;;;;0.48;100.00;97032.02;109509;1251;66993;-76
2024/01/15 02:30:44;;;;;;;6.30;4.00;;;;;;;0.47;100.00;97036.83;109509;1251;61133;-75
2024/01/15 02:33:11;;;;;;;5.20;3.50;;;;;;;0.46;100.00;97033.55;109496;1251;64022;-77
2024/01/15 02:35:38;;;;;;;4.10;3.30;;;;;;;0.44;100.00;97026.81;109513;1251;58966;-77
2024/01/15 02:38:05;;;;;;;4.80;3.50;;;;;;;0.43;100.00;97028.66;109517;1251;59166;-77
2024/01/15 02:40:32;;;;;;;5.00;3.70;;;;;;;0.40;100.00;97024.95;109517;1253;66850;-77
2024/01/15 02:42:59;;;;;;;4.90;3.20;;;;;;;0.39;100.00;97021.38;109500;1251;60894;-75
2024/01/15 02:45:27;;;;;;;5.80;3.70;;;;;;;0.36;100.00;97020.11;109555;1251;65203;-76
2024/01/15 02:47:54;;;;;;;5.60;4.00;;;;;;;0.36;100.00;97016.14;109502;1251;59338;-77
2024/01/15 02:50:21;;;;;;;5.90;3.80;;;;;;;0.36;100.00;97010.35;109537;1251;58970;-76
2024/01/15 02:52:48;;;;;;;6.30;3.80;;;;;;;0.35;100.00;97008.67;109512;1251;65841;-76
2024/01/15 02:55:14;;;;;;;5.60;3.60;;;;;;;0.35;100.00;97001.89;109518;1251;60033;-77
2024/01/15 02:57:41;;;;;;;6.80;4.20;;;;;;;0.33;100.00;96996.73;109540;1251;65083;-76
2024/01/15 03:00:32;;;;;;;6.00;4.10;;;;;;;0.32;100.00;96991.59;109168;1257;59001;-76
2024/01/15 03:02:59;;;;;;;6.40;4.30;;;;;;;0.29;100.00;96986.50;109456;1251;59200;-76
2024/01/15 03:05:25;;;;;;;7.60;5.00;;;;;;;0.28;100.00;96985.35;109396;1251;65713;-76
2024/01/15 03:07:52;;;;;;;7.90;4.30;;;;;;;0.26;100.00;96979.50;109497;1251;60068;-77
2024/01/15 03:10:18;;;;;;;8.60;4.90;;;;;;;0.24;100.00;96972.48;109450;1251;64090;-76
2024/01/15 03:12:45;;;;;;;8.90;4.80;;;;;;;0.23;100.00;96969.88;109494;1251;59274;-76
2024/01/15 03:15:12;;;;;;;5.60;3.80;;;;;;;0.23;100.00;96964.83;109447;1251;58893;-76
2024/01/15 03:17:38;;;;;;;6.10;3.80;;;;;;;0.24;100.00;96953.27;109478;1253;67257;-77
2024/01/15 03:20:05;;;;;;;7.70;4.30;;;;;;;0.26;100.00;96950.02;109543;1251;61277;-77
2024/01/15 03:22:32;;;;;;;5.40;4.00;;;;;;;0.26;100.00;96947.57;109279;1251;62912;-77
2024/01/15 03:24:58;;;;;;;5.30;3.60;;;;;;;0.24;100.00;96944.52;109449;1252;59048;-77
2024/01/15 03:27:25;;;;;;;5.30;3.60;;;;;;;0.23;100.00;96941.63;109227;1251;61316;-77
2024/01/15 03:29:52;;;;;;;5.50;3.90;;;;;;;0.24;100.00;96939.44;109498;1253;67087;-77
2024/01/15 03:32:19;;;;;;;5.60;3.30;;;;;;;0.24;100.00;96941.05;109485;1251;61157;-77
2024/01/15 03:34:47;;;;;;;8.50;4.90;;;;;;;0.23;100.00;96938.98;109485;1251;63734;-77
2024/01/15 03:37:14;;;;;;;6.50;3.90;;;;;;;0.22;100.00;96936.59;109459;1251;59206;-77
2024/01/15 03:39:40;;;;;;;5.80;3.50;;;;;;;0.21;100.00;96933.14;109497;1251;58931;-76
2024/01/15 03:42:07;;;;;;;5.20;3.80;;;;;;;0.23;100.00;96927.96;109487;1251;67364;-77
2024/01/15 03:44:34;;;;;;;5.20;3.20;;;;;;;0.27;100.00;96926.91;109494;1251;61075;-77
2024/01/15 03:47:00;;;;;;;5.40;3.80;;;;;;;0.29;100.00;96925.02;109468;1255;65254;-77
2024/01/15 03:49:27;;;;;;;5.60;3.40;;;;;;;0.31;100.00;96923.34;109476;1252;58961;-77
2024/01/15 03:51:53;;;;;;;6.40;4.00;;;;;;;0.33;100.00;96927.93;109513;1253;59026;-77
2024/01/15 03:54:20;;;;;;;6.70;3.80;;;;;;;0.34;100.00;96924.20;109515;1251;66926;-77
2024/01/15 03:56:46;;;;;;;4.60;3.30;;;;;;;0.34;100.00;96919.48;109518;1251;61325;-77
2024/01/15 03:59:13;;;;;;;4.50;2.90;;;;;;;0.34;100.00;96916.52;109445;1253;64773;-77
2024/01/15 04:01:40;;;;;;;5.20;3.00;;;;;;;0.35;100.00;96913.86;109191;1251;59382;-76
2024/01/15 04:04:06;;;;;;;3.90;3.00;;;;;;;0.35;100.00;96909.63;109500;1251;58980;-76
2024/01/15 04:06:33;;;;;;;4.40;2.90;;;;;;;0.36;100.00;96906.27;109486;1251;67095;-76
2024/01/15 04:08:59;;;;;;;4.70;3.00;;;;;;;0.37;100.00;96908.14;109453;1251;60893;-77
2024/01/15 04:11:26;;;;;;;6.00;3.60;;;;;;;0.39;100.00;96905.21;109500;1251;63846;-77
2024/01/15 04:13:52;;;;;;;6.20;3.00;;;;;;;0.39;100.00;96899.79;109418;1256;59032;-77
2024/01/15 04:16:20;;;;;;;5.80;3.50;;;;;;;0.38;100.00;96890.40;109532;1251;58869;-77
2024/01/15 04:18:46;;;;;;;4.30;2.50;;;;;;;0.39;100.00;96888.45;109401;1251;66187;-77
2024/01/15 04:21:13;;;;;;;8.90;3.00;;;;;;;0.42;100.00;96887.94;109488;1251;61102;-77
2024/01/15 04:23:39;;;;;;;4.70;2.60;;;;;;;0.44;100.00;96888.29;109480;1252;65235;-77
2024/01/15 04:26:06;;;;;;;5.80;2.80;;;;;;;0.48;100.00;96885.15;109478;1251;58994;-76
2024/01/15 04:28:32;;;;;;;4.70;2.70;;;;;;;0.50;100.00;96880.43;109473;1253;58963;-77
2024/01/15 04:30:59;;;;;;;6.20;2.60;;;;;;;0.52;100.00;96878.24;109275;1253;67152;-76
2024/01/15 04:33:25;;;;;;;5.60;2.70;;;;;;;0.54;100.00;96877.21;109444;1251;61294;-75
2024/01/15 04:35:52;;;;;;;3.90;2.40;;;;;;;0.57;100.00;96874.97;109432;1253;63916;-75
2024/01/15 04:38:18;;;;;;;4.50;2.60;;;;;;;0.60;100.00;96869.20;109473;1255;59219;-76
2024/01/15 04:40:45;;;;;;;3.90;2.70;;;;;;;0.61;100.00;96868.25;109494;1251;58923;-77
2024/01/15 04:43:12;;;;;;;4.70;2.10;;;;;;;0.63;100.00;96869.16;109451;1251;64924;-75
2024/01/15 04:45:38;;;;;;;3.30;2.40;;;;;;;0.65;100.00;96870.13;109419;1251;60052;-76
2024/01/15 04:48:05;;;;;;;5.50;3.00;;;;;;;0.65;100.00;96872.17;109433;1252;65086;-76
2024/01/15 04:50:32;;;;;;;2.10;1.40;;;;;;;0.64;100.00;96872.24;109450;1251;58925;-75
2024/01/15 04:52:58;;;;;;;2.70;1.40;;;;;;;0.65;100.00;96866.27;109436;1253;59042;-77
2024/01/15 04:55:25;;;;;;;4.60;2.50;;;;;;;0.66;100.00;96869.35;109420;1252;65966;-76
2024/01/15 04:57:51;;;;;;;4.30;2.50;;;;;;;0.66;100.00;96868.66;109477;1251;59979;-76
2024/01/15 05:00:19;;;;;;;3.10;2.10;;;;;;;0.66;100.00;96877.91;109457;1251;65194;-77
2024/01/15 05:02:45;;;;;;;3.90;2.10;;;;;;;0.69;100.00;96882.80;109464;1255;58949;-76
2024/01/15 05:05:12;;;;;;;3.00;2.50;;;;;;;0.70;100.00;96886.41;109489;1251;58888;-76
2024/01/15 05:07:39;;;;;;;3.10;2.00;;;;;;;0.70;100.00;96890.41;109484;1251;66077;-76
2024/01/15 05:10:07;;;;;;;2.70;2.30;;;;;;;0.71;100.00;96883.73;109457;1251;60194;-77
2024/01/15 05:12:33;;;;;;;3.90;1.90;;;;;;;0.70;100.00;96881.54;109456;1251;62812;-76
2024/01/15 05:15:00;;;;;;;3.10;2.00;;;;;;;0.69;100.00;96878.75;109434;1251;58918;-76
2024/01/15 05:17:27;;;;;;;3.20;2.20;;;;;;;0.70;100.00;96874.91;109465;1251;58880;-76
2024/01/15 05:19:53;;;;;;;3.50;1.90;;;;;;;0.70;100.00;96872.27;109472;1251;66039;-77
2024/01/15 05:22:21;;;;;;;2.90;2.20;;;;;;;0.71;100.00;96869.38;109473;1251;60051;-76
2024/01/15 05:24:47;;;;;;;3.80;2.40;;;;;;;0.72;100.00;96856.08;109452;1251;65301;-76
2024/01/15 05:27:14;;;;;;;3.30;2.10;;;;;;;0.72;100.00;96854.48;109446;1251;59266;-76
2024/01/15 05:29:41;;;;;;;2.30;2.00;;;;;;;0.72;100.00;96859.53;109489;1251;59075;-76
2024/01/15 05:32:07;;;;;;;4.00;2.20;;;;;;;0.70;100.00;96856.31;109274;1252;64924;-77
2024/01/15 05:34:34;;;;;;;3.60;2.70;;;;;;;0.68;100.00;96867.30;109482;1251;60110;-77
2024/01/15 05:37:00;;;;;;;5.10;2.80;;;;;;;0.66;100.00;96890.67;109442;1251;65447;-76
2024/01/15 05:39:27;;;;;;;5.00;2.00;;;;;;;0.66;100.00;96895.73;109448;1251;59238;-77
2024/01/15 05:41:54;;;;;;;4.70;2.50;;;;;;;0.68;100.00;96898.06;109459;1251;59007;-76
2024/01/15 05:44:20;;;;;;;3.80;2.70;;;;;;;0.68;100.00;96892.14;109469;1251;67076;-76
2024/01/15 05:46:47;;;;;;;2.40;2.10;;;;;;;0.65;100.00;96871.98;109475;1254;60296;-76
2024/01/15 05:49:14;;;;;;;3.30;2.50;;;;;;;0.64;100.00;96873.11;109471;1251;65079;-77
2024/01/15 05:51:40;;;;;;;3.10;2.40;;;;;;;0.63;100.00;96876.33;109434;1251;59011;-76
2024/01/15 05:54:07;;;;;;;3.30;2.80;;;;;;;0.63;100.00;96876.87;109245;1251;58943;-77
2024/01/15 05:56:33;;;;;;;5.00;2.80;;;;;;;0.61;100.00;96872.93;109321;1251;66685;-77
2024/01/15 05:59:00;;;;;;;3.30;1.80;;;;;;;0.61;100.00;96866.86;109467;1251;60202;-77
2024/01/15 06:01:27;;;;;;;4.70;3.30;;;;;;;0.61;100.00;96860.38;109460;1251;64786;-76
2024/01/15 06:03:53;;;;;;;3.30;2.10;;;;;;;0.60;100.00;96863.23;109396;1251;59467;-77
2024/01/15 06:06:20;;;;;;;3.60;2.70;;;;;;;0.61;100.00;96866.31;109451;1251;58972;-76
2024/01/15 06:08:46;;;;;;;4.40;2.20;;;;;;;0.62;100.00;96865.19;109454;1251;66149;-77
2024/01/15 06:11:13;;;;;;;4.00;2.50;;;;;;;0.64;100.00;96871.91;109447;1251;60159;-77
2024/01/15 06:13:39;;;;;;;3.90;3.00;;;;;;;0.63;100.00;96867.08;109442;1251;63842;-78
2024/01/15 06:16:20;;;;;;;4.00;2.40;;;;;;;0.62;100.00;96873.76;109479;1251;59094;-77
2024/01/15 06:18:46;;;;;;;4.60;2.30;;;;;;;0.63;100.00;96873.35;109461;1251;59004;-77
2024/01/15 06:21:14;;;;;;;4.30;2.40;;;;;;;0.65;100.00;96864.67;109451;1251;67050;-78
2024/01/15 06:23:41;;;;;;;4.50;2.50;;;;;;;0.66;100.00;96860.09;109444;1251;61040;-78
2024/01/15 06:26:07;;;;;;;4.00;2.70;;;;;;;0.65;100.00;96870.92;109442;1251;64862;-77
2024/01/15 06:28:34;;;;;;;3.90;2.60;;;;;;;0.65;100.00;96871.45;109447;1251;59291;-77
2024/01/15 06:31:01;;;;;;;4.10;2.90;;;;;;;0.66;100.00;96877.18;109388;1251;59054;-77
2024/01/15 06:33:27;;;;;;;3.90;2.70;;;;;;;0.66;100.00;96875.46;109469;1251;66026;-77
2024/01/15 06:35:54;;;;;;;3.10;2.60;;;;;;;0.65;100.00;96870.77;109472;1251;61068;-77
2024/01/15 06:38:20;;;;;;;3.10;2.20;;;;;;;0.68;100.00;96872.03;109442;1251;65157;-76
2024/01/15 06:40:48;;;;;;;4.20;2.60;;;;;;;0.70;100.00;96874.52;109453;1251;58961;-75
2024/01/15 06:43:18;;;;;;;3.80;2.60;;;;;;;0.71;100.00;96876.73;109494;1251;59018;-76
2024/01/15 06:45:44;;;;;;;4.20;2.60;;;;;;;0.71;100.00;96880.59;109448;1251;66085;-76
2024/01/15 06:48:16;;;;;;;3.70;2.50;;;;;;;0.69;100.00;96883.67;109463;1251;60091;-76
2024/01/15 06:50:43;;;;;;;3.40;3.00;;;;;;;0.66;100.00;96884.17;109464;1251;64838;-75
2024/01/15 06:53:09;;;;;;;3.80;2.70;;;;;;;0.66;100.00;96888.20;109311;1251;59404;-76
2024/01/15 06:55:38;;;;;;;4.30;2.80;;;;;;;0.66;100.00;96893.98;109464;1251;59014;-76
2024/01/15 06:58:05;;;;;;;4.60;2.70;;;;;;;0.66;100.00;96892.43;109447;1251;65985;-76
2024/01/15 07:00:31;;;;;;;6.70;2.70;;;;;;;0.65;100.00;96895.09;109468;1251;60211;-75
2024/01/15 07:02:58;;;;;;;5.20;3.40;;;;;;;0.65;100.00;96894.94;109455;1251;65208;-77
2024/01/15 07:05:25;;;;;;;5.70;3.70;;;;;;;0.64;100.00;96887.11;109442;1251;58965;-77
2024/01/15 07:07:51;;;;;;;5.60;3.10;;;;;;;0.64;100.00;96887.11;109474;1251;60029;-76
2024/01/15 07:10:18;;;;;;;7.20;4.30;;;;;;;0.65;100.00;96889.34;109434;1251;67454;-76
2024/01/15 07:12:45;;;;;;;4.80;3.00;;;;;;;0.65;100.00;96889.30;109391;1251;59639;-76
2024/01/15 07:15:11;;;;;;;4.30;3.30;;;;;;;0.66;100.00;96894.13;109447;1251;64103;-76
2024/01/15 07:17:39;;;;;;;5.80;3.30;;;;;;;0.67;100.00;96892.52;109412;1251;58959;-77
2024/01/15 07:20:09;;;;;;;3.90;2.80;;;;;;;0.68;100.00;96900.87;109455;1251;60305;-76
2024/01/15 07:22:36;;;;;;;6.20;2.90;;;;;;;0.69;100.00;96912.34;109466;1251;65729;-77
2024/01/15 07:25:04;;;;;;;5.70;3.90;;;;;;;0.70;100.00;96924.33;109478;1251;61108;-77
2024/01/15 07:27:32;;;;;;;4.20;3.30;;;;;;;0.71;100.00;96931.41;108617;1251;1002431;-78
2024/01/15 07:29:58;;;;;;;4.80;3.60;;;;;;;0.71;100.00;96938.77;109487;1251;59191;-77
2024/01/15 07:32:25;;;;;;;4.80;3.40;;;;;;;0.72;100.00;96940.48;109201;1256;59101;-77
2024/01/15 07:34:52;;;;;;;5.80;3.80;;;;;;;0.73;100.00;96935.00;109204;1257;66089;-76
2024/01/15 07:37:18;;;;;;;5.80;3.90;;;;;;;0.73;100.00;96945.29;109053;1257;60026;-76
2024/01/15 07:39:45;;;;;;;5.80;4.20;;;;;;;0.72;100.00;96962.79;109057;1257;65129;-76
2024/01/15 07:42:12;;;;;;;6.90;4.50;;;;;;;0.73;100.00;96961.75;108310;1257;1002533;-77
2024/01/15 07:44:38;;;;;;;5.30;3.70;;;;;;;0.74;100.00;96955.21;109073;1257;58968;-77
2024/01/15 07:47:05;;;;;;;6.10;4.30;;;;;;;0.76;100.00;96958.20;109010;1256;66228;-77
2024/01/15 07:49:32;;;;;;;6.60;4.80;;;;;;;0.79;100.00;96959.94;108869;1260;60079;-77
2024/01/15 07:51:59;;;;;;;7.00;5.00;;;;;;;0.83;100.00;96961.28;108872;1259;65093;-76
2024/01/15 07:54:25;;;;;;;6.50;4.30;;;;;;;0.88;100.00;96964.99;108856;1259;59396;-75
2024/01/15 07:56:55;;;;;;;8.80;4.80;;;;;;;0.93;100.00;96963.83;108763;1260;58998;-76
2024/01/15 07:59:22;;;;;;;5.90;4.80;;;;;;;0.96;100.00;96968.34;108106;1260;1002479;-75
2024/01/15 08:01:48;;;;;;;9.20;5.60;;;;;;;0.99;100.00;96966.81;108867;1260;59066;-76
2024/01/15 08:04:15;;;;;;;7.00;4.90;;;;;;;1.03;100.00;96973.89;108894;1256;65173;-76
2024/01/15 08:06:42;;;;;;;7.10;4.80;;;;;;;1.07;100.00;96973.61;109059;1255;59253;-77
2024/01/15 08:09:08;;;;;;;8.20;5.10;;;;;;;1.09;100.00;96972.43;109063;1256;58925;-76
2024/01/15 08:11:35;;;;;;;8.50;5.50;;;;;;;1.13;100.00;96964.88;108910;1257;66040;-75
2024/01/15 08:14:02;;;;;;;6.50;4.70;;;;;;;1.18;100.00;96963.70;109004;1257;61694;-75
2024/01/15 08:16:28;;;;;;;8.20;5.30;;;;;;;1.22;100.00;96967.80;109024;1257;64014;-74
2024/01/15 08:18:55;;;;;;;8.30;5.50;;;;;;;1.24;100.00;96965.39;109035;1256;59062;-74
2024/01/15 08:21:22;;;;;;;9.10;5.60;;;;;;;1.25;100.00;96965.55;108912;1256;59255;-76
2024/01/15 08:23:48;;;;;;;6.70;5.00;;;;;;;1.27;100.00;96973.63;109049;1256;65793;-75
2024/01/15 08:26:15;;;;;;;8.00;5.50;;;;;;;1.28;100.00;96973.91;109048;1254;59065;-77
2024/01/15 08:28:41;;;;;;;7.20;5.60;;;;;;;1.25;100.00;96976.23;109372;1252;65101;-76
2024/01/15 08:31:09;;;;;;;8.10;5.40;;;;;;;1.22;100.00;96975.48;109370;1253;58999;-77
2024/01/15 08:33:36;;;;;;;8.90;5.50;;;;;;;1.23;100.00;96982.94;109421;1253;59110;-77
2024/01/15 08:36:02;;;;;;;10.20;6.00;;;;;;;1.23;100.00;96983.66;109445;1254;67271;-77
2024/01/15 08:38:29;;;;;;;9.20;5.70;;;;;;;1.19;100.00;96986.89;109448;1252;60162;-77
2024/01/15 08:40:58;;;;;;;8.10;5.00;;;;;;;1.14;100.00;96984.44;109418;1252;65035;-80
2024/01/15 08:43:25;;;;;;;10.50;6.60;;;;;;;1.09;100.00;96987.52;109405;1252;58974;-74
2024/01/15 08:45:52;;;;;;;8.90;6.30;;;;;;;1.07;100.00;96987.09;109431;1252;59056;-81
2024/01/15 08:48:19;;;;;;;8.00;5.60;;;;;;;1.07;100.00;96985.88;109318;1253;67026;-80
2024/01/15 08:50:46;;;;;;;10.30;6.50;;;;;;;1.07;100.00;96982.02;109488;1252;60700;-80
2024/01/15 08:53:13;;;;;;;8.70;6.30;;;;;;;1.12;100.00;96988.40;109449;1252;65087;-80
2024/01/15 08:55:42;;;;;;;9.00;6.40;;;;;;;1.14;100.00;96989.00;109418;1252;58993;-80
2024/01/15 08:58:09;;;;;;;11.10;6.50;;;;;;;1.15;100.00;96995.40;109192;1253;59056;-80
2024/01/15 09:00:35;;;;;;;9.40;6.40;;;;;;;1.13;100.00;96997.08;109508;1252;67153;-80
2024/01/15 09:03:02;;;;;;;7.40;5.20;;;;;;;1.14;100.00;96998.24;109457;1252;61061;-81
2024/01/15 09:05:29;;;;;;;11.10;7.00;;;;;;;1.12;100.00;97000.60;109481;1252;63990;-81
2024/01/15 09:07:56;;;;;;;11.10;6.90;;;;;;;1.13;100.00;97004.77;109378;1252;59030;-81
2024/01/15 09:10:22;;;;;;;10.80;7.30;;;;;;;1.20;100.00;97011.17;109462;1252;58853;-81
2024/01/15 09:12:49;;;;;;;11.30;7.80;;;;;;;1.24;100.00;97006.91;109418;1252;64737;-81
2024/01/15 09:15:16;;;;;;;10.80;7.60;;;;;;;1.24;100.00;97012.13;109273;1253;59082;-81
2024/01/15 09:17:42;;;;;;;12.90;7.90;;;;;;;1.22;100.00;97012.98;109353;1252;64100;-81
2024/01/15 09:20:09;;;;;;;13.20;8.10;;;;;;;1.22;100.00;97006.84;109440;1252;59425;-81
2024/01/15 09:22:41;;;;;;;13.10;7.90;;;;;;;1.27;100.00;97010.39;109419;1253;58962;-80
2024/01/15 09:25:11;;;;;;;11.80;8.10;;;;;;;1.34;100.00;97005.55;109430;1252;65902;-80
2024/01/15 09:27:38;;;;;;;11.50;8.40;;;;;;;1.42;100.00;97005.23;109103;1253;60264;-82
2024/01/15 09:30:05;;;;;;;12.40;7.70;;;;;;;1.49;100.00;97005.84;109332;1252;64088;-81
2024/01/15 09:32:32;;;;;;;11.30;8.50;;;;;;;1.57;100.00;97001.65;109440;1252;59026;-80
2024/01/15 09:34:59;;;;;;;12.90;8.50;;;;;;;1.65;100.00;96995.24;109356;1253;58963;-81
2024/01/15 09:37:26;;;;;;;10.70;8.30;;;;;;;1.73;100.00;96995.40;109473;1252;67290;-84
2024/01/15 09:39:53;;;;;;;13.50;8.80;;;;;;;1.83;100.00;96993.05;109465;1252;60930;-80
2024/01/15 09:42:20;;;;;;;12.90;8.50;;;;;;;1.86;100.00;96989.85;109401;1252;62539;-81
2024/01/15 09:44:48;;;;;;;11.70;8.30;;;;;;;1.92;100.00;96983.48;109462;1252;59053;-83
2024/01/15 09:47:16;;;;;;;10.10;7.30;;;;;;;2.03;100.00;96990.70;109473;1252;59003;-82
2024/01/15 09:49:42;;;;;;;13.50;9.40;;;;;;;2.13;100.00;96987.59;109351;1253;65895;-82
2024/01/15 09:52:11;;;;;;;11.60;6.70;;;;;;;2.20;100.00;96984.13;109468;1252;61277;-82
2024/01/15 09:54:38;;;;;;;15.20;9.10;;;;;;;2.20;100.00;96979.23;109421;1252;64187;-79
2024/01/15 09:57:06;;;;;;;13.10;8.70;;;;;;;2.18;100.00;96981.33;109323;1252;59115;-81
2024/01/15 09:59:33;;;;;;;13.60;9.40;;;;;;;2.11;100.00;96984.02;109346;1252;126920;-81
2024/01/15 10:02:03;;;;;;;14.80;8.90;;;;;;;2.04;100.00;96983.80;109450;1252;67207;-82
2024/01/15 10:04:29;;;;;;;13.80;9.20;;;;;;;1.98;100.00;96986.29;109438;1252;60254;-81
2024/01/15 10:07:00;;;;;;;12.50;9.60;;;;;;;1.98;100.00;96989.61;109454;1252;64064;-81
2024/01/15 10:09:27;;;;;;;12.80;8.50;;;;;;;1.99;100.00;96985.88;109394;1252;59196;-81
2024/01/15 10:11:53;;;;;;;13.20;9.50;;;;;;;1.89;100.00;96982.98;109438;1252;59036;-81
2024/01/15 10:14:20;;;;;;;14.50;9.60;;;;;;;1.76;100.00;96985.27;109035;1257;67168;-81
2024/01/15 10:16:46;;;;;;;12.90;9.10;;;;;;;1.69;100.00;96983.95;109428;1252;61175;-79
2024/01/15 10:19:13;;;;;;;12.00;8.10;;;;;;;1.69;100.00;96979.19;109415;1252;65241;-81
2024/01/15 10:21:40;;;;;;;12.30;8.90;;;;;;;1.78;100.00;96975.84;109376;1253;59285;-80
2024/01/15 10:24:07;;;;;;;15.00;9.90;;;;;;;1.92;100.00;96977.20;109480;1252;59063;-81
2024/01/15 10:26:34;;;;;;;13.80;9.90;;;;;;;1.99;100.00;96965.76;109448;1252;66370;-80
2024/01/15 10:29:01;;;;;;;12.70;9.10;;;;;;;2.00;100.00;96961.83;109471;1252;61056;-82
2024/01/15 10:31:28;;;;;;;14.60;10.10;;;;;;;2.01;100.00;96960.20;109437;1252;65272;-81
2024/01/15 10:34:11;;;;;;;13.50;8.00;;;;;;;2.08;100.00;96963.42;109150;1253;59346;-81
2024/01/15 10:36:41;;;;;;;14.10;9.80;;;;;;;2.16;100.00;96966.90;109435;1252;58958;-83
2024/01/15 10:39:08;;;;;;;14.00;10.50;;;;;;;2.20;100.00;96973.09;109424;1252;67145;-80
2024/01/15 10:41:35;;;;;;;15.20;10.70;;;;;;;2.35;100.00;96975.64;109423;1252;61179;-81
2024/01/15 10:44:01;;;;;;;13.70;10.50;;;;;;;2.55;100.00;96978.70;109405;1252;65374;-81
2024/01/15 10:46:29;;;;;;;12.80;8.50;;;;;;;2.67;100.00;96974.42;109437;1252;59189;-81
2024/01/15 10:48:56;;;;;;;12.40;8.40;;;;;;;2.74;100.00;96990.59;109462;1252;59029;-81
2024/01/15 10:51:25;;;;;;;16.00;10.60;;;;;;;2.94;100.00;96989.95;109463;1252;64825;-83
2024/01/15 10:53:53;;;;;;;13.70;10.30;;;;;;;3.26;100.00;96985.45;109288;1253;59837;-81
2024/01/15 10:56:21;;;;;;;12.60;9.90;;;;;;;3.48;100.00;96977.52;109329;1252;65086;-80
2024/01/15 10:58:50;;;;;;;11.90;10.30;;;;;;;3.47;100.00;96981.11;109435;1252;58992;-81
2024/01/15 11:01:17;;;;;;;13.00;9.70;;;;;;;3.37;100.00;96981.17;109353;1253;59127;-83
2024/01/15 11:03:47;;;;;;;15.10;10.70;;;;;;;3.24;100.00;96981.17;109466;1252;65953;-81
2024/01/15 11:06:19;;;;;;;13.50;10.10;;;;;;;3.11;100.00;96976.63;109478;1252;59650;-81
2024/01/15 11:08:50;;;;;;;14.10;10.90;;;;;;;2.98;100.00;96984.55;109339;1253;64087;-82
2024/01/15 11:11:17;;;;;;;13.20;10.20;;;;;;;2.86;100.00;96979.92;109479;1252;59058;-80
2024/01/15 11:13:46;;;;;;;13.10;9.70;;;;;;;2.84;100.00;96982.53;109465;1252;58912;-81
2024/01/15 11:16:17;;;;;;;13.90;9.70;;;;;;;2.92;100.00;96986.23;109454;1252;66119;-81
2024/01/15 11:19:02;;;;;;;12.00;9.00;;;;;;;2.98;100.00;96981.41;109474;1252;59850;-82
2024/01/15 11:21:31;;;;;;;11.30;8.60;;;;;;;3.15;100.00;96975.70;109376;1252;64081;-83